sensor_id;sensor_type;location;lat;lon;timestamp;P1;durP1;ratioP1;P2;durP2;ratioP2
48006;SDS011;33771;48.180;11.400;2024-02-26T00:01:07;10.33;;;6.10;;
48006;SDS011;33771;48.180;11.400;2024-02-26T00:03:32;8.47;;;5.10;;
48006;SDS011;33771;48.180;11.400;2024-02-26T00:06:00;7.03;;;4.77;;
48006;SDS011;33771;48.180;11.400;2024-02-26T00:08:27;7.30;;;5.03;;
48006;SDS011;33771;48.180;11.400;2024-02-26T00:10:53;10.70;;;5.40;;
48006;SDS011;33771;48.180;11.400;2024-02-26T00:13:18;7.93;;;5.40;;
48006;SDS011;33771;48.180;11.400;2024-02-26T00:15:45;8.30;;;5.60;;
48006;SDS011;33771;48.180;11.400;2024-02-26T00:18:10;8.50;;;5.17;;
48006;SDS011;33771;48.180;11.400;2024-02-26T00:20:36;9.23;;;5.90;;
48006;SDS011;33771;48.180;11.400;2024-02-26T00:23:01;7.57;;;4.67;;
48006;SDS011;33771;48.180;11.400;2024-02-26T00:25:27;8.23;;;5.23;;
48006;SDS011;33771;48.180;11.400;2024-02-26T00:27:52;11.67;;;5.40;;
48006;SDS011;33771;48.180;11.400;2024-02-26T00:30:18;9.00;;;4.70;;
48006;SDS011;33771;48.180;11.400;2024-02-26T00:32:43;7.83;;;5.10;;
48006;SDS011;33771;48.180;11.400;2024-02-26T00:35:09;9.03;;;5.00;;
48006;SDS011;33771;48.180;11.400;2024-02-26T00:37:35;7.73;;;4.90;;
48006;SDS011;33771;48.180;11.400;2024-02-26T00:40:00;10.37;;;5.50;;
48006;SDS011;33771;48.180;11.400;2024-02-26T00:42:26;8.37;;;5.67;;
48006;SDS011;33771;48.180;11.400;2024-02-26T00:44:51;10.37;;;5.73;;
48006;SDS011;33771;48.180;11.400;2024-02-26T00:47:17;9.33;;;5.97;;
48006;SDS011;33771;48.180;11.400;2024-02-26T00:49:42;9.07;;;5.23;;
48006;SDS011;33771;48.180;11.400;2024-02-26T00:52:08;10.80;;;5.70;;
48006;SDS011;33771;48.180;11.400;2024-02-26T00:54:33;10.63;;;5.50;;
48006;SDS011;33771;48.180;11.400;2024-02-26T00:56:59;10.50;;;5.87;;
48006;SDS011;33771;48.180;11.400;2024-02-26T00:59:24;10.47;;;6.00;;
48006;SDS011;33771;48.180;11.400;2024-02-26T01:01:50;10.27;;;5.57;;
48006;SDS011;33771;48.180;11.400;2024-02-26T01:04:15;9.30;;;5.80;;
48006;SDS011;33771;48.180;11.400;2024-02-26T01:06:41;8.13;;;6.13;;
48006;SDS011;33771;48.180;11.400;2024-02-26T01:09:06;9.87;;;6.07;;
48006;SDS011;33771;48.180;11.400;2024-02-26T01:11:33;8.83;;;6.10;;
48006;SDS011;33771;48.180;11.400;2024-02-26T01:13:58;9.57;;;6.27;;
48006;SDS011;33771;48.180;11.400;2024-02-26T01:16:24;13.97;;;6.80;;
48006;SDS011;33771;48.180;11.400;2024-02-26T01:18:49;9.03;;;6.53;;
48006;SDS011;33771;48.180;11.400;2024-02-26T01:21:15;11.17;;;6.80;;
48006;SDS011;33771;48.180;11.400;2024-02-26T01:23:40;9.40;;;6.80;;
48006;SDS011;33771;48.180;11.400;2024-02-26T01:26:07;9.33;;;6.83;;
48006;SDS011;33771;48.180;11.400;2024-02-26T01:28:33;8.80;;;6.30;;
48006;SDS011;33771;48.180;11.400;2024-02-26T01:30:58;9.77;;;6.20;;
48006;SDS011;33771;48.180;11.400;2024-02-26T01:33:25;10.00;;;6.10;;
48006;SDS011;33771;48.180;11.400;2024-02-26T01:35:51;12.10;;;6.40;;
48006;SDS011;33771;48.180;11.400;2024-02-26T01:38:18;9.37;;;5.70;;
48006;SDS011;33771;48.180;11.400;2024-02-26T01:40:43;7.37;;;5.70;;
48006;SDS011;33771;48.180;11.400;2024-02-26T01:43:09;9.47;;;5.80;;
48006;SDS011;33771;48.180;11.400;2024-02-26T01:45:34;8.97;;;6.13;;
48006;SDS011;33771;48.180;11.400;2024-02-26T01:48:00;11.90;;;6.67;;
48006;SDS011;33771;48.180;11.400;2024-02-26T01:50:25;9.47;;;6.23;;
48006;SDS011;33771;48.180;11.400;2024-02-26T01:52:52;9.33;;;6.37;;
48006;SDS011;33771;48.180;11.400;2024-02-26T01:55:19;8.73;;;5.83;;
48006;SDS011;33771;48.180;11.400;2024-02-26T01:57:46;9.23;;;5.67;;
48006;SDS011;33771;48.180;11.400;2024-02-26T02:00:13;8.73;;;5.97;;
48006;SDS011;33771;48.180;11.400;2024-02-26T02:02:41;7.17;;;5.30;;
48006;SDS011;33771;48.180;11.400;2024-02-26T02:05:07;8.27;;;5.30;;
48006;SDS011;33771;48.180;11.400;2024-02-26T02:07:35;6.77;;;5.00;;
48006;SDS011;33771;48.180;11.400;2024-02-26T02:10:01;7.57;;;4.93;;
48006;SDS011;33771;48.180;11.400;2024-02-26T02:12:27;7.70;;;4.83;;
48006;SDS011;33771;48.180;11.400;2024-02-26T02:14:53;6.90;;;4.70;;
48006;SDS011;33771;48.180;11.400;2024-02-26T02:17:19;8.07;;;4.93;;
48006;SDS011;33771;48.180;11.400;2024-02-26T02:19:45;7.20;;;4.50;;
48006;SDS011;33771;48.180;11.400;2024-02-26T02:22:11;8.87;;;4.80;;
48006;SDS011;33771;48.180;11.400;2024-02-26T02:24:36;5.67;;;4.23;;
48006;SDS011;33771;48.180;11.400;2024-02-26T02:27:02;9.90;;;4.93;;
48006;SDS011;33771;48.180;11.400;2024-02-26T02:29:28;8.27;;;4.70;;
48006;SDS011;33771;48.180;11.400;2024-02-26T02:31:53;9.50;;;4.70;;
48006;SDS011;33771;48.180;11.400;2024-02-26T02:34:20;8.23;;;5.33;;
48006;SDS011;33771;48.180;11.400;2024-02-26T02:36:52;7.47;;;4.50;;
48006;SDS011;33771;48.180;11.400;2024-02-26T02:39:18;10.73;;;5.30;;
48006;SDS011;33771;48.180;11.400;2024-02-26T02:41:44;8.43;;;5.00;;
48006;SDS011;33771;48.180;11.400;2024-02-26T02:47:17;10.17;;;5.37;;
48006;SDS011;33771;48.180;11.400;2024-02-26T02:49:42;6.97;;;4.50;;
48006;SDS011;33771;48.180;11.400;2024-02-26T02:52:08;7.43;;;4.50;;
48006;SDS011;33771;48.180;11.400;2024-02-26T02:54:33;6.90;;;4.30;;
48006;SDS011;33771;48.180;11.400;2024-02-26T02:56:59;9.57;;;4.93;;
48006;SDS011;33771;48.180;11.400;2024-02-26T02:59:25;7.40;;;4.80;;
48006;SDS011;33771;48.180;11.400;2024-02-26T03:01:50;7.97;;;4.40;;
48006;SDS011;33771;48.180;11.400;2024-02-26T03:04:17;7.47;;;5.07;;
48006;SDS011;33771;48.180;11.400;2024-02-26T03:06:42;7.33;;;5.50;;
48006;SDS011;33771;48.180;11.400;2024-02-26T03:09:08;8.67;;;5.20;;
48006;SDS011;33771;48.180;11.400;2024-02-26T03:11:33;8.77;;;5.40;;
48006;SDS011;33771;48.180;11.400;2024-02-26T03:13:59;10.07;;;5.40;;
48006;SDS011;33771;48.180;11.400;2024-02-26T03:16:24;10.67;;;5.60;;
48006;SDS011;33771;48.180;11.400;2024-02-26T03:18:50;10.47;;;6.37;;
48006;SDS011;33771;48.180;11.400;2024-02-26T03:21:15;10.27;;;6.07;;
48006;SDS011;33771;48.180;11.400;2024-02-26T03:23:41;7.83;;;5.73;;
48006;SDS011;33771;48.180;11.400;2024-02-26T03:26:06;9.20;;;5.93;;
48006;SDS011;33771;48.180;11.400;2024-02-26T03:28:33;10.40;;;6.00;;
48006;SDS011;33771;48.180;11.400;2024-02-26T03:30:59;8.20;;;5.50;;
48006;SDS011;33771;48.180;11.400;2024-02-26T03:33:26;8.03;;;5.27;;
48006;SDS011;33771;48.180;11.400;2024-02-26T03:35:51;10.53;;;6.03;;
48006;SDS011;33771;48.180;11.400;2024-02-26T03:38:17;9.30;;;5.37;;
48006;SDS011;33771;48.180;11.400;2024-02-26T03:40:42;8.47;;;5.10;;
48006;SDS011;33771;48.180;11.400;2024-02-26T03:43:08;7.53;;;5.10;;
48006;SDS011;33771;48.180;11.400;2024-02-26T03:45:33;8.33;;;5.40;;
48006;SDS011;33771;48.180;11.400;2024-02-26T03:47:59;6.50;;;4.83;;
48006;SDS011;33771;48.180;11.400;2024-02-26T03:50:24;8.67;;;5.37;;
48006;SDS011;33771;48.180;11.400;2024-02-26T03:52:50;7.50;;;5.20;;
48006;SDS011;33771;48.180;11.400;2024-02-26T03:55:16;9.10;;;5.60;;
48006;SDS011;33771;48.180;11.400;2024-02-26T03:57:45;7.40;;;4.90;;
48006;SDS011;33771;48.180;11.400;2024-02-26T04:00:11;7.57;;;4.37;;
48006;SDS011;33771;48.180;11.400;2024-02-26T04:02:37;7.33;;;5.20;;
48006;SDS011;33771;48.180;11.400;2024-02-26T04:05:03;9.87;;;5.20;;
48006;SDS011;33771;48.180;11.400;2024-02-26T04:07:29;7.40;;;4.97;;
48006;SDS011;33771;48.180;11.400;2024-02-26T04:09:55;9.63;;;5.00;;
48006;SDS011;33771;48.180;11.400;2024-02-26T04:12:20;6.97;;;5.13;;
48006;SDS011;33771;48.180;11.400;2024-02-26T04:14:46;8.07;;;4.70;;
48006;SDS011;33771;48.180;11.400;2024-02-26T04:17:11;7.90;;;4.40;;
48006;SDS011;33771;48.180;11.400;2024-02-26T04:19:37;6.43;;;4.57;;
48006;SDS011;33771;48.180;11.400;2024-02-26T04:22:02;7.37;;;4.80;;
48006;SDS011;33771;48.180;11.400;2024-02-26T04:24:28;5.90;;;4.27;;
48006;SDS011;33771;48.180;11.400;2024-02-26T04:26:54;7.77;;;4.30;;
48006;SDS011;33771;48.180;11.400;2024-02-26T04:29:19;20.87;;;12.57;;
48006;SDS011;33771;48.180;11.400;2024-02-26T04:31:45;18.87;;;12.23;;
48006;SDS011;33771;48.180;11.400;2024-02-26T04:34:11;15.93;;;9.03;;
48006;SDS011;33771;48.180;11.400;2024-02-26T04:36:37;15.70;;;7.43;;
48006;SDS011;33771;48.180;11.400;2024-02-26T04:39:02;13.07;;;6.20;;
48006;SDS011;33771;48.180;11.400;2024-02-26T04:41:28;18.40;;;7.80;;
48006;SDS011;33771;48.180;11.400;2024-02-26T04:43:53;14.37;;;7.63;;
48006;SDS011;33771;48.180;11.400;2024-02-26T04:46:19;9.87;;;5.30;;
48006;SDS011;33771;48.180;11.400;2024-02-26T04:48:46;14.10;;;4.70;;
48006;SDS011;33771;48.180;11.400;2024-02-26T04:51:12;10.33;;;4.53;;
48006;SDS011;33771;48.180;11.400;2024-02-26T04:53:37;8.77;;;4.40;;
48006;SDS011;33771;48.180;11.400;2024-02-26T04:56:03;7.37;;;4.43;;
48006;SDS011;33771;48.180;11.400;2024-02-26T04:58:29;12.33;;;5.00;;
48006;SDS011;33771;48.180;11.400;2024-02-26T05:00:55;9.57;;;4.30;;
48006;SDS011;33771;48.180;11.400;2024-02-26T05:03:20;8.83;;;4.67;;
48006;SDS011;33771;48.180;11.400;2024-02-26T05:05:46;9.60;;;4.47;;
48006;SDS011;33771;48.180;11.400;2024-02-26T05:08:12;6.90;;;4.73;;
48006;SDS011;33771;48.180;11.400;2024-02-26T05:10:37;6.27;;;4.47;;
48006;SDS011;33771;48.180;11.400;2024-02-26T05:13:08;8.27;;;4.30;;
48006;SDS011;33771;48.180;11.400;2024-02-26T05:15:34;11.47;;;5.10;;
48006;SDS011;33771;48.180;11.400;2024-02-26T05:18:00;7.30;;;4.60;;
48006;SDS011;33771;48.180;11.400;2024-02-26T05:20:25;8.83;;;4.53;;
48006;SDS011;33771;48.180;11.400;2024-02-26T05:22:51;12.03;;;6.10;;
48006;SDS011;33771;48.180;11.400;2024-02-26T05:25:16;8.93;;;4.90;;
48006;SDS011;33771;48.180;11.400;2024-02-26T05:27:43;8.27;;;5.37;;
48006;SDS011;33771;48.180;11.400;2024-02-26T05:30:09;10.17;;;5.13;;
48006;SDS011;33771;48.180;11.400;2024-02-26T05:32:35;12.27;;;6.00;;
48006;SDS011;33771;48.180;11.400;2024-02-26T05:35:01;9.33;;;5.40;;
48006;SDS011;33771;48.180;11.400;2024-02-26T05:37:28;9.47;;;5.40;;
48006;SDS011;33771;48.180;11.400;2024-02-26T05:39:54;10.13;;;5.10;;
48006;SDS011;33771;48.180;11.400;2024-02-26T05:42:20;10.50;;;5.70;;
48006;SDS011;33771;48.180;11.400;2024-02-26T05:44:45;15.57;;;5.90;;
48006;SDS011;33771;48.180;11.400;2024-02-26T05:47:11;19.07;;;5.90;;
48006;SDS011;33771;48.180;11.400;2024-02-26T05:49:37;8.67;;;5.87;;
48006;SDS011;33771;48.180;11.400;2024-02-26T05:52:02;14.33;;;6.47;;
48006;SDS011;33771;48.180;11.400;2024-02-26T05:54:28;29.00;;;6.23;;
48006;SDS011;33771;48.180;11.400;2024-02-26T05:56:53;8.53;;;5.03;;
48006;SDS011;33771;48.180;11.400;2024-02-26T05:59:19;14.60;;;6.67;;
48006;SDS011;33771;48.180;11.400;2024-02-26T06:01:44;8.53;;;5.50;;
48006;SDS011;33771;48.180;11.400;2024-02-26T06:04:10;9.83;;;5.40;;
48006;SDS011;33771;48.180;11.400;2024-02-26T06:06:37;13.13;;;5.80;;
48006;SDS011;33771;48.180;11.400;2024-02-26T06:09:02;13.43;;;6.73;;
48006;SDS011;33771;48.180;11.400;2024-02-26T06:11:30;10.93;;;5.13;;
48006;SDS011;33771;48.180;11.400;2024-02-26T06:13:55;9.97;;;5.43;;
48006;SDS011;33771;48.180;11.400;2024-02-26T06:16:21;13.33;;;6.27;;
48006;SDS011;33771;48.180;11.400;2024-02-26T06:18:47;12.57;;;5.87;;
48006;SDS011;33771;48.180;11.400;2024-02-26T06:21:12;8.17;;;5.47;;
48006;SDS011;33771;48.180;11.400;2024-02-26T06:23:38;12.80;;;5.40;;
48006;SDS011;33771;48.180;11.400;2024-02-26T06:26:05;9.00;;;5.10;;
48006;SDS011;33771;48.180;11.400;2024-02-26T06:28:30;8.30;;;5.83;;
48006;SDS011;33771;48.180;11.400;2024-02-26T06:30:58;8.70;;;5.30;;
48006;SDS011;33771;48.180;11.400;2024-02-26T06:33:24;10.47;;;6.07;;
48006;SDS011;33771;48.180;11.400;2024-02-26T06:35:49;7.53;;;4.93;;
48006;SDS011;33771;48.180;11.400;2024-02-26T06:38:15;11.40;;;6.63;;
48006;SDS011;33771;48.180;11.400;2024-02-26T06:40:42;11.63;;;5.97;;
48006;SDS011;33771;48.180;11.400;2024-02-26T06:43:08;11.13;;;6.10;;
48006;SDS011;33771;48.180;11.400;2024-02-26T06:45:34;12.90;;;6.43;;
48006;SDS011;33771;48.180;11.400;2024-02-26T06:47:59;12.63;;;7.37;;
48006;SDS011;33771;48.180;11.400;2024-02-26T06:50:25;12.53;;;8.63;;
48006;SDS011;33771;48.180;11.400;2024-02-26T06:52:51;12.17;;;8.17;;
48006;SDS011;33771;48.180;11.400;2024-02-26T06:55:16;20.37;;;11.67;;
48006;SDS011;33771;48.180;11.400;2024-02-26T06:57:42;17.10;;;8.37;;
48006;SDS011;33771;48.180;11.400;2024-02-26T07:00:07;14.57;;;8.50;;
48006;SDS011;33771;48.180;11.400;2024-02-26T07:02:33;12.10;;;7.17;;
48006;SDS011;33771;48.180;11.400;2024-02-26T07:04:59;14.97;;;8.83;;
48006;SDS011;33771;48.180;11.400;2024-02-26T07:07:25;11.33;;;8.40;;
48006;SDS011;33771;48.180;11.400;2024-02-26T07:09:50;13.97;;;8.37;;
48006;SDS011;33771;48.180;11.400;2024-02-26T07:12:16;13.70;;;8.97;;
48006;SDS011;33771;48.180;11.400;2024-02-26T07:14:42;15.07;;;8.30;;
48006;SDS011;33771;48.180;11.400;2024-02-26T07:17:08;14.27;;;8.80;;
48006;SDS011;33771;48.180;11.400;2024-02-26T07:19:34;12.20;;;7.93;;
48006;SDS011;33771;48.180;11.400;2024-02-26T07:21:59;12.87;;;8.47;;
48006;SDS011;33771;48.180;11.400;2024-02-26T07:24:27;12.37;;;8.20;;
48006;SDS011;33771;48.180;11.400;2024-02-26T07:26:53;17.23;;;8.67;;
48006;SDS011;33771;48.180;11.400;2024-02-26T07:29:21;15.57;;;9.20;;
48006;SDS011;33771;48.180;11.400;2024-02-26T07:31:47;15.27;;;8.27;;
48006;SDS011;33771;48.180;11.400;2024-02-26T07:34:12;16.53;;;8.73;;
48006;SDS011;33771;48.180;11.400;2024-02-26T07:36:38;15.50;;;9.53;;
48006;SDS011;33771;48.180;11.400;2024-02-26T07:39:04;14.47;;;9.43;;
48006;SDS011;33771;48.180;11.400;2024-02-26T07:41:30;16.53;;;9.17;;
48006;SDS011;33771;48.180;11.400;2024-02-26T07:43:55;16.00;;;8.37;;
48006;SDS011;33771;48.180;11.400;2024-02-26T07:46:21;16.80;;;9.60;;
48006;SDS011;33771;48.180;11.400;2024-02-26T07:48:46;20.30;;;10.13;;
48006;SDS011;33771;48.180;11.400;2024-02-26T07:51:12;14.20;;;9.87;;
48006;SDS011;33771;48.180;11.400;2024-02-26T07:53:42;14.03;;;9.37;;
48006;SDS011;33771;48.180;11.400;2024-02-26T07:56:08;17.47;;;10.53;;
48006;SDS011;33771;48.180;11.400;2024-02-26T07:58:34;15.63;;;10.27;;
48006;SDS011;33771;48.180;11.400;2024-02-26T08:00:59;15.20;;;9.87;;
48006;SDS011;33771;48.180;11.400;2024-02-26T08:03:25;18.23;;;9.37;;
48006;SDS011;33771;48.180;11.400;2024-02-26T08:05:51;15.20;;;10.17;;
48006;SDS011;33771;48.180;11.400;2024-02-26T08:08:16;12.60;;;9.00;;
48006;SDS011;33771;48.180;11.400;2024-02-26T08:10:42;15.13;;;9.43;;
48006;SDS011;33771;48.180;11.400;2024-02-26T08:13:08;14.53;;;9.60;;
48006;SDS011;33771;48.180;11.400;2024-02-26T08:15:34;15.23;;;9.87;;
48006;SDS011;33771;48.180;11.400;2024-02-26T08:18:00;19.27;;;10.30;;
48006;SDS011;33771;48.180;11.400;2024-02-26T08:20:29;19.90;;;11.27;;
48006;SDS011;33771;48.180;11.400;2024-02-26T08:22:56;18.70;;;11.40;;
48006;SDS011;33771;48.180;11.400;2024-02-26T08:25:22;20.33;;;12.33;;
48006;SDS011;33771;48.180;11.400;2024-02-26T08:27:48;16.23;;;10.40;;
48006;SDS011;33771;48.180;11.400;2024-02-26T08:30:14;18.77;;;11.80;;
48006;SDS011;33771;48.180;11.400;2024-02-26T08:32:42;15.57;;;10.40;;
48006;SDS011;33771;48.180;11.400;2024-02-26T08:35:08;16.47;;;10.50;;
48006;SDS011;33771;48.180;11.400;2024-02-26T08:37:33;18.00;;;10.40;;
48006;SDS011;33771;48.180;11.400;2024-02-26T08:39:59;16.60;;;10.87;;
48006;SDS011;33771;48.180;11.400;2024-02-26T08:42:25;15.33;;;9.63;;
48006;SDS011;33771;48.180;11.400;2024-02-26T08:44:50;20.53;;;10.70;;
48006;SDS011;33771;48.180;11.400;2024-02-26T08:47:16;19.17;;;10.27;;
48006;SDS011;33771;48.180;11.400;2024-02-26T08:49:45;19.93;;;11.63;;
48006;SDS011;33771;48.180;11.400;2024-02-26T08:52:10;21.60;;;11.70;;
48006;SDS011;33771;48.180;11.400;2024-02-26T08:54:36;22.53;;;11.13;;
48006;SDS011;33771;48.180;11.400;2024-02-26T08:57:01;19.63;;;10.77;;
48006;SDS011;33771;48.180;11.400;2024-02-26T08:59:27;20.33;;;11.13;;
48006;SDS011;33771;48.180;11.400;2024-02-26T09:01:53;21.20;;;11.70;;
48006;SDS011;33771;48.180;11.400;2024-02-26T09:04:19;26.70;;;11.37;;
48006;SDS011;33771;48.180;11.400;2024-02-26T09:06:44;26.13;;;11.73;;
48006;SDS011;33771;48.180;11.400;2024-02-26T09:09:10;16.47;;;10.33;;
48006;SDS011;33771;48.180;11.400;2024-02-26T09:11:36;18.20;;;11.57;;
48006;SDS011;33771;48.180;11.400;2024-02-26T09:14:01;23.47;;;12.47;;
48006;SDS011;33771;48.180;11.400;2024-02-26T09:16:28;16.33;;;10.50;;
48006;SDS011;33771;48.180;11.400;2024-02-26T09:18:54;19.53;;;11.57;;
48006;SDS011;33771;48.180;11.400;2024-02-26T09:21:19;22.60;;;13.40;;
48006;SDS011;33771;48.180;11.400;2024-02-26T09:23:49;14.97;;;9.93;;
48006;SDS011;33771;48.180;11.400;2024-02-26T09:26:15;22.73;;;10.67;;
48006;SDS011;33771;48.180;11.400;2024-02-26T09:28:41;22.33;;;10.27;;
48006;SDS011;33771;48.180;11.400;2024-02-26T09:31:07;15.90;;;8.57;;
48006;SDS011;33771;48.180;11.400;2024-02-26T09:33:32;19.93;;;10.23;;
48006;SDS011;33771;48.180;11.400;2024-02-26T09:35:58;17.73;;;9.13;;
48006;SDS011;33771;48.180;11.400;2024-02-26T09:38:25;22.07;;;8.83;;
48006;SDS011;33771;48.180;11.400;2024-02-26T09:40:51;25.10;;;15.07;;
48006;SDS011;33771;48.180;11.400;2024-02-26T09:43:17;22.07;;;11.23;;
48006;SDS011;33771;48.180;11.400;2024-02-26T09:45:50;19.40;;;11.43;;
48006;SDS011;33771;48.180;11.400;2024-02-26T09:48:16;16.10;;;8.10;;
48006;SDS011;33771;48.180;11.400;2024-02-26T09:50:42;16.87;;;9.80;;
48006;SDS011;33771;48.180;11.400;2024-02-26T09:53:09;14.30;;;9.37;;
48006;SDS011;33771;48.180;11.400;2024-02-26T09:55:37;12.10;;;6.40;;
48006;SDS011;33771;48.180;11.400;2024-02-26T09:58:03;17.43;;;8.10;;
48006;SDS011;33771;48.180;11.400;2024-02-26T10:00:30;20.40;;;8.10;;
48006;SDS011;33771;48.180;11.400;2024-02-26T10:03:02;13.97;;;8.70;;
48006;SDS011;33771;48.180;11.400;2024-02-26T10:05:29;19.27;;;5.97;;
48006;SDS011;33771;48.180;11.400;2024-02-26T10:07:58;24.93;;;8.17;;
48006;SDS011;33771;48.180;11.400;2024-02-26T10:10:26;14.47;;;8.80;;
48006;SDS011;33771;48.180;11.400;2024-02-26T10:12:53;16.23;;;7.63;;
48006;SDS011;33771;48.180;11.400;2024-02-26T10:15:19;18.30;;;6.67;;
48006;SDS011;33771;48.180;11.400;2024-02-26T10:17:44;13.73;;;5.93;;
48006;SDS011;33771;48.180;11.400;2024-02-26T10:20:14;22.20;;;9.03;;
48006;SDS011;33771;48.180;11.400;2024-02-26T10:22:41;12.77;;;4.93;;
48006;SDS011;33771;48.180;11.400;2024-02-26T10:25:07;10.07;;;4.03;;
48006;SDS011;33771;48.180;11.400;2024-02-26T10:27:33;10.50;;;3.93;;
48006;SDS011;33771;48.180;11.400;2024-02-26T10:30:02;6.07;;;3.07;;
48006;SDS011;33771;48.180;11.400;2024-02-26T10:32:50;9.33;;;4.30;;
48006;SDS011;33771;48.180;11.400;2024-02-26T10:35:16;10.63;;;3.50;;
48006;SDS011;33771;48.180;11.400;2024-02-26T10:37:43;11.97;;;2.77;;
48006;SDS011;33771;48.180;11.400;2024-02-26T10:40:12;4.90;;;2.70;;
48006;SDS011;33771;48.180;11.400;2024-02-26T10:42:38;8.40;;;2.33;;
48006;SDS011;33771;48.180;11.400;2024-02-26T10:45:05;9.47;;;2.10;;
48006;SDS011;33771;48.180;11.400;2024-02-26T10:47:31;6.40;;;2.23;;
48006;SDS011;33771;48.180;11.400;2024-02-26T10:49:59;6.90;;;1.97;;
48006;SDS011;33771;48.180;11.400;2024-02-26T10:52:26;12.27;;;2.10;;
48006;SDS011;33771;48.180;11.400;2024-02-26T10:54:56;10.03;;;2.30;;
48006;SDS011;33771;48.180;11.400;2024-02-26T10:57:24;12.93;;;3.27;;
48006;SDS011;33771;48.180;11.400;2024-02-26T10:59:51;9.63;;;2.33;;
48006;SDS011;33771;48.180;11.400;2024-02-26T11:02:18;5.73;;;2.13;;
48006;SDS011;33771;48.180;11.400;2024-02-26T11:04:45;7.00;;;2.00;;
48006;SDS011;33771;48.180;11.400;2024-02-26T11:07:12;4.67;;;1.77;;
48006;SDS011;33771;48.180;11.400;2024-02-26T11:09:39;9.87;;;1.50;;
48006;SDS011;33771;48.180;11.400;2024-02-26T11:12:10;7.20;;;1.50;;
48006;SDS011;33771;48.180;11.400;2024-02-26T11:14:38;3.63;;;1.50;;
48006;SDS011;33771;48.180;11.400;2024-02-26T11:17:09;7.83;;;2.13;;
48006;SDS011;33771;48.180;11.400;2024-02-26T11:19:36;5.50;;;1.70;;
48006;SDS011;33771;48.180;11.400;2024-02-26T11:29:24;5.80;;;1.40;;
48006;SDS011;33771;48.180;11.400;2024-02-26T11:34:18;8.20;;;4.70;;
48006;SDS011;33771;48.180;11.400;2024-02-26T11:46:42;6.20;;;1.70;;
48006;SDS011;33771;48.180;11.400;2024-02-26T11:51:51;4.47;;;1.50;;
48006;SDS011;33771;48.180;11.400;2024-02-26T11:59:55;3.30;;;1.70;;
48006;SDS011;33771;48.180;11.400;2024-02-26T12:02:37;5.50;;;1.50;;
48006;SDS011;33771;48.180;11.400;2024-02-26T12:07:35;4.55;;;2.15;;
48006;SDS011;33771;48.180;11.400;2024-02-26T12:22:39;2.95;;;1.50;;
48006;SDS011;33771;48.180;11.400;2024-02-26T12:25:05;3.50;;;1.60;;
48006;SDS011;33771;48.180;11.400;2024-02-26T12:27:34;3.25;;;1.60;;
48006;SDS011;33771;48.180;11.400;2024-02-26T15:52:06;8.70;;;5.80;;
48006;SDS011;33771;48.180;11.400;2024-02-26T15:59:24;10.10;;;6.10;;
48006;SDS011;33771;48.180;11.400;2024-02-26T16:06:50;6.60;;;3.90;;
48006;SDS011;33771;48.180;11.400;2024-02-26T16:09:18;7.45;;;3.30;;
48006;SDS011;33771;48.180;11.400;2024-02-26T16:16:47;11.40;;;7.00;;
48006;SDS011;33771;48.180;11.400;2024-02-26T16:22:00;10.70;;;3.50;;
48006;SDS011;33771;48.180;11.400;2024-02-26T16:24:26;6.50;;;3.20;;
48006;SDS011;33771;48.180;11.400;2024-02-26T16:26:52;5.40;;;2.40;;
48006;SDS011;33771;48.180;11.400;2024-02-26T16:29:18;6.50;;;2.30;;
48006;SDS011;33771;48.180;11.400;2024-02-26T16:31:43;4.50;;;2.30;;
48006;SDS011;33771;48.180;11.400;2024-02-26T16:36:34;4.05;;;1.80;;
48006;SDS011;33771;48.180;11.400;2024-02-26T16:39:00;11.10;;;6.87;;
48006;SDS011;33771;48.180;11.400;2024-02-26T16:41:25;6.67;;;3.70;;
48006;SDS011;33771;48.180;11.400;2024-02-26T16:43:50;7.10;;;3.30;;
48006;SDS011;33771;48.180;11.400;2024-02-26T16:46:16;5.73;;;2.87;;
48006;SDS011;33771;48.180;11.400;2024-02-26T16:48:43;4.57;;;2.20;;
48006;SDS011;33771;48.180;11.400;2024-02-26T16:51:08;6.97;;;2.37;;
48006;SDS011;33771;48.180;11.400;2024-02-26T16:53:34;4.10;;;2.30;;
48006;SDS011;33771;48.180;11.400;2024-02-26T16:56:00;7.83;;;2.30;;
48006;SDS011;33771;48.180;11.400;2024-02-26T16:58:29;8.73;;;2.70;;
48006;SDS011;33771;48.180;11.400;2024-02-26T17:00:54;4.10;;;2.40;;
48006;SDS011;33771;48.180;11.400;2024-02-26T17:03:20;7.63;;;2.90;;
48006;SDS011;33771;48.180;11.400;2024-02-26T17:05:46;4.95;;;2.70;;
48006;SDS011;33771;48.180;11.400;2024-02-26T17:08:11;6.93;;;3.83;;
48006;SDS011;33771;48.180;11.400;2024-02-26T17:10:38;7.10;;;3.00;;
48006;SDS011;33771;48.180;11.400;2024-02-26T17:13:03;4.00;;;2.43;;
48006;SDS011;33771;48.180;11.400;2024-02-26T17:15:29;5.90;;;2.57;;
48006;SDS011;33771;48.180;11.400;2024-02-26T17:17:54;5.53;;;2.57;;
48006;SDS011;33771;48.180;11.400;2024-02-26T17:20:20;7.50;;;3.17;;
48006;SDS011;33771;48.180;11.400;2024-02-26T17:22:46;7.83;;;5.37;;
48006;SDS011;33771;48.180;11.400;2024-02-26T17:25:11;5.87;;;3.67;;
48006;SDS011;33771;48.180;11.400;2024-02-26T17:27:38;7.67;;;2.77;;
48006;SDS011;33771;48.180;11.400;2024-02-26T17:30:05;8.83;;;3.13;;
48006;SDS011;33771;48.180;11.400;2024-02-26T17:32:31;6.30;;;2.70;;
48006;SDS011;33771;48.180;11.400;2024-02-26T17:34:57;5.00;;;2.47;;
48006;SDS011;33771;48.180;11.400;2024-02-26T17:37:24;5.53;;;2.63;;
48006;SDS011;33771;48.180;11.400;2024-02-26T17:39:50;5.50;;;3.00;;
48006;SDS011;33771;48.180;11.400;2024-02-26T17:42:15;6.03;;;2.50;;
48006;SDS011;33771;48.180;11.400;2024-02-26T17:44:41;4.73;;;2.60;;
48006;SDS011;33771;48.180;11.400;2024-02-26T17:47:07;4.03;;;2.30;;
48006;SDS011;33771;48.180;11.400;2024-02-26T17:49:33;10.60;;;2.83;;
48006;SDS011;33771;48.180;11.400;2024-02-26T17:51:59;5.17;;;2.53;;
48006;SDS011;33771;48.180;11.400;2024-02-26T17:54:24;6.27;;;3.00;;
48006;SDS011;33771;48.180;11.400;2024-02-26T17:56:50;5.97;;;3.40;;
48006;SDS011;33771;48.180;11.400;2024-02-26T17:59:17;4.37;;;2.70;;
48006;SDS011;33771;48.180;11.400;2024-02-26T18:01:42;5.00;;;2.63;;
48006;SDS011;33771;48.180;11.400;2024-02-26T18:04:08;6.10;;;2.90;;
48006;SDS011;33771;48.180;11.400;2024-02-26T18:06:33;9.30;;;2.93;;
48006;SDS011;33771;48.180;11.400;2024-02-26T18:08:59;6.57;;;3.07;;
48006;SDS011;33771;48.180;11.400;2024-02-26T18:11:25;8.40;;;3.20;;
48006;SDS011;33771;48.180;11.400;2024-02-26T18:13:50;5.10;;;2.80;;
48006;SDS011;33771;48.180;11.400;2024-02-26T18:16:16;5.73;;;3.43;;
48006;SDS011;33771;48.180;11.400;2024-02-26T18:18:41;6.93;;;3.00;;
48006;SDS011;33771;48.180;11.400;2024-02-26T18:21:11;5.60;;;2.90;;
48006;SDS011;33771;48.180;11.400;2024-02-26T18:23:39;6.63;;;2.70;;
48006;SDS011;33771;48.180;11.400;2024-02-26T18:26:07;6.43;;;3.10;;
48006;SDS011;33771;48.180;11.400;2024-02-26T18:28:33;5.60;;;3.00;;
48006;SDS011;33771;48.180;11.400;2024-02-26T18:30:59;5.13;;;2.80;;
48006;SDS011;33771;48.180;11.400;2024-02-26T18:33:24;10.10;;;2.93;;
48006;SDS011;33771;48.180;11.400;2024-02-26T18:35:50;4.67;;;2.70;;
48006;SDS011;33771;48.180;11.400;2024-02-26T18:38:15;5.70;;;3.33;;
48006;SDS011;33771;48.180;11.400;2024-02-26T18:40:41;4.93;;;2.90;;
48006;SDS011;33771;48.180;11.400;2024-02-26T18:43:06;5.67;;;3.10;;
48006;SDS011;33771;48.180;11.400;2024-02-26T18:45:32;6.00;;;3.40;;
48006;SDS011;33771;48.180;11.400;2024-02-26T18:47:57;9.97;;;4.20;;
48006;SDS011;33771;48.180;11.400;2024-02-26T18:50:23;8.63;;;3.40;;